createdAt,value
2023-04-27T00:00:25.575Z,95925.81
2023-04-27T00:02:57.665Z,95921.72
2023-04-27T00:05:46.108Z,95917.63
2023-04-27T00:11:00.571Z,95920.06
2023-04-27T00:13:36.048Z,95916.78
2023-04-27T00:16:03.953Z,95919.50
2023-04-27T00:18:44.164Z,95913.25
2023-04-27T00:21:10.976Z,95918.97
2023-04-27T00:23:40.044Z,95918.97
2023-04-27T00:26:06.665Z,95922.25
2023-04-27T00:28:39.510Z,95931.47
2023-04-27T00:31:06.625Z,95935.00
2023-04-27T00:33:38.307Z,95923.63
2023-04-27T00:36:13.622Z,95923.34
2023-04-27T00:38:40.838Z,95922.81
2023-04-27T00:41:13.602Z,95908.69
2023-04-27T00:43:53.994Z,95907.59
2023-04-27T00:46:26.031Z,95908.41
2023-04-27T00:49:11.130Z,95900.28
2023-04-27T00:52:00.203Z,95907.63
2023-04-27T00:54:27.064Z,95901.09
2023-04-27T00:57:00.253Z,95902.19
2023-04-27T00:59:36.007Z,95899.47
2023-04-27T01:04:55.628Z,95902.72
2023-04-27T01:10:11.494Z,95900.81
2023-04-27T01:15:46.378Z,95908.16
2023-04-27T01:18:12.947Z,95910.63
2023-04-27T01:20:44.145Z,95912.50
2023-04-27T01:23:21.256Z,95904.38
2023-04-27T01:25:47.872Z,95910.34
2023-04-27T01:28:16.989Z,95911.44
2023-04-27T01:30:46.587Z,95907.09
2023-04-27T01:33:19.677Z,95916.88
2023-04-27T01:35:49.287Z,95909.56
2023-04-27T01:38:18.272Z,95909.56
2023-04-27T01:40:47.323Z,95908.50
2023-04-27T01:43:16.499Z,95910.13
2023-04-27T01:45:49.062Z,95910.38
2023-04-27T01:48:18.079Z,95905.78
2023-04-27T01:51:00.489Z,95908.75
2023-04-27T01:53:34.341Z,95906.06
2023-04-27T01:56:08.132Z,95913.66
2023-04-27T01:58:50.456Z,95904.44
2023-04-27T02:01:28.958Z,95906.63
2023-04-27T02:03:55.720Z,95892.25
2023-04-27T02:09:10.324Z,95897.41
2023-04-27T02:11:56.984Z,95897.38
2023-04-27T02:14:32.580Z,95910.66
2023-04-27T02:17:03.804Z,95908.22
2023-04-27T02:19:36.475Z,95908.22
2023-04-27T02:22:10.142Z,95904.97
2023-04-27T02:24:42.770Z,95908.75
2023-04-27T02:27:14.038Z,95901.72
2023-04-27T02:29:54.077Z,95909.84
2023-04-27T02:33:17.121Z,95914.19
2023-04-27T02:35:19.790Z,95910.13
2023-04-27T02:37:48.950Z,95907.94
2023-04-27T02:40:17.982Z,95908.22
2023-04-27T02:45:47.025Z,95909.03
2023-04-27T02:48:26.411Z,95910.91
2023-04-27T02:50:56.897Z,95900.88
2023-04-27T02:53:24.881Z,95902.50
2023-04-27T02:55:58.220Z,95903.84
2023-04-27T02:58:26.386Z,95894.66
2023-04-27T03:00:57.189Z,95895.75
2023-04-27T03:03:26.959Z,95893.56
2023-04-27T03:05:53.491Z,95899.53
2023-04-27T03:08:31.331Z,95887.59
2023-04-27T03:11:00.742Z,95887.88
2023-04-27T03:13:28.065Z,95897.91
2023-04-27T03:15:54.482Z,95902.22
2023-04-27T03:18:21.149Z,95889.75
2023-04-27T03:20:47.720Z,95892.47
2023-04-27T03:23:14.242Z,95896.47
2023-04-27T03:25:40.807Z,95896.69
2023-04-27T03:28:07.293Z,95895.00
2023-04-27T03:30:38.701Z,95898.47
2023-04-27T03:33:05.152Z,95895.47
2023-04-27T03:39:15.122Z,95905.06
2023-04-27T03:41:43.128Z,95912.31
2023-04-27T03:44:09.690Z,95900.69
2023-04-27T03:46:41.870Z,95914.25
2023-04-27T03:49:08.731Z,95904.59
2023-04-27T03:51:35.349Z,95895.97
2023-04-27T03:54:01.944Z,95898.19
2023-04-27T03:56:28.588Z,95895.81
2023-04-27T03:58:55.301Z,95884.75
2023-04-27T04:01:21.980Z,95894.50
2023-04-27T04:03:50.129Z,95886.41
2023-04-27T04:06:20.680Z,95881.81
2023-04-27T04:08:49.300Z,95888.31
2023-04-27T04:11:16.983Z,95882.91
2023-04-27T04:13:44.242Z,95886.44
2023-04-27T04:16:12.996Z,95881.59
2023-04-27T04:18:39.552Z,95890.81
2023-04-27T04:21:06.385Z,95889.13
2023-04-27T04:23:33.990Z,95888.59
2023-04-27T04:26:02.088Z,95894.03
2023-04-27T04:46:57.992Z,95903.81
2023-04-27T04:49:24.473Z,95915.19
2023-04-27T04:51:51.033Z,95918.44
2023-04-27T04:54:17.530Z,95922.50
2023-04-27T04:56:45.718Z,95915.75
2023-04-27T04:59:12.693Z,95920.91
2023-04-27T05:01:40.849Z,95924.16
2023-04-27T05:04:07.679Z,95926.88
2023-04-27T05:06:34.417Z,95928.25
2023-04-27T05:09:00.938Z,95932.06
2023-04-27T05:11:30.877Z,95923.66
2023-04-27T05:13:57.416Z,95928.81
2023-04-27T05:16:24.073Z,95930.47
2023-04-27T05:19:27.965Z,95930.47
2023-04-27T05:21:54.968Z,95929.34
2023-04-27T05:24:22.140Z,95927.28
2023-04-27T05:26:48.581Z,95917.72
2023-04-27T05:29:15.418Z,95911.56
2023-04-27T05:31:43.288Z,95901.94
2023-04-27T05:34:10.046Z,95902.41
2023-04-27T05:36:36.882Z,95900.84
2023-04-27T05:39:03.462Z,95905.72
2023-04-27T05:41:30.876Z,95909.63
2023-04-27T05:43:57.395Z,95905.16
2023-04-27T05:46:23.992Z,95896.75
2023-04-27T05:48:51.070Z,95895.41
2023-04-27T05:51:17.879Z,95898.34
2023-04-27T05:53:44.436Z,95906.00
2023-04-27T05:56:11.934Z,95901.72
2023-04-27T05:58:38.408Z,95906.00
2023-04-27T06:01:05.025Z,95910.28
2023-04-27T06:03:32.184Z,95910.72
2023-04-27T06:06:00.794Z,95910.09
2023-04-27T06:08:37.385Z,95913.97
2023-04-27T06:11:04.071Z,95912.56
2023-04-27T06:13:32.187Z,95925.78
2023-04-27T06:15:59.210Z,95914.97
2023-04-27T06:18:25.939Z,95908.84
2023-04-27T06:20:52.462Z,95911.66
2023-04-27T06:23:18.906Z,95902.53
2023-04-27T06:25:45.446Z,95901.97
2023-04-27T06:28:11.944Z,95901.31
2023-04-27T06:30:39.578Z,95904.84
2023-04-27T06:33:06.584Z,95913.78
2023-04-27T06:35:33.132Z,95919.50
2023-04-27T06:37:59.615Z,95909.91
2023-04-27T06:40:26.537Z,95919.00
2023-04-27T06:43:03.022Z,95917.66
2023-04-27T06:45:40.974Z,95917.94
2023-04-27T06:48:08.711Z,95923.13
2023-04-27T06:50:37.712Z,95925.34
2023-04-27T06:53:04.269Z,95919.22
2023-04-27T06:55:31.030Z,95918.97
2023-04-27T06:58:12.900Z,95917.72
2023-04-27T07:11:37.395Z,95926.75
2023-04-27T07:14:03.977Z,95928.56
2023-04-27T07:16:30.595Z,95929.00
2023-04-27T07:18:57.105Z,95922.81
2023-04-27T07:21:23.641Z,95923.88
2023-04-27T07:23:50.173Z,95929.06
2023-04-27T07:26:16.958Z,95927.47
2023-04-27T07:28:44.302Z,95923.03
2023-04-27T07:31:10.954Z,95925.47
2023-04-27T07:33:37.561Z,95927.44
2023-04-27T07:36:05.241Z,95929.28
2023-04-27T07:38:31.903Z,95925.88
2023-04-27T07:41:01.668Z,95923.41
2023-04-27T07:43:28.974Z,95919.44
2023-04-27T07:45:58.475Z,95914.94
2023-04-27T07:48:25.471Z,95917.09
2023-04-27T07:50:53.545Z,95906.84
2023-04-27T07:53:20.089Z,95909.25
2023-04-27T07:55:47.120Z,95904.91
2023-04-27T07:58:13.732Z,95898.34
2023-04-27T08:00:40.201Z,95901.75
2023-04-27T08:03:08.662Z,95901.84
2023-04-27T08:05:36.005Z,95904.47
2023-04-27T08:08:02.735Z,95910.56
2023-04-27T08:10:29.281Z,95899.56
2023-04-27T08:12:56.040Z,95900.94
2023-04-27T08:15:22.725Z,95905.25
2023-04-27T08:17:49.447Z,95895.63
2023-04-27T08:20:16.015Z,95894.78
2023-04-27T08:22:42.946Z,95898.75
2023-04-27T08:25:09.886Z,95899.13
2023-04-27T08:27:40.379Z,95894.03
2023-04-27T08:30:07.888Z,95888.53
2023-04-27T08:32:34.503Z,95894.59
2023-04-27T08:35:01.169Z,95893.88
2023-04-27T08:37:27.638Z,95880.25
2023-04-27T08:40:00.555Z,95888.53
2023-04-27T08:42:27.043Z,95892.53
2023-04-27T08:44:53.525Z,95884.34
2023-04-27T08:47:25.741Z,95887.56
2023-04-27T08:49:57.973Z,95896.25
2023-04-27T08:52:24.517Z,95901.53
2023-04-27T08:54:51.083Z,95888.66
2023-04-27T08:57:17.558Z,95901.53
2023-04-27T08:59:45.313Z,95899.03
2023-04-27T09:02:21.930Z,95896.91
2023-04-27T09:04:48.706Z,95896.28
2023-04-27T09:07:17.654Z,95893.84
2023-04-27T09:09:45.331Z,95893.56
2023-04-27T09:12:20.720Z,95895.38
2023-04-27T09:15:03.517Z,95889.19
2023-04-27T09:17:30.860Z,95892.06
2023-04-27T09:20:13.421Z,95893.41
2023-04-27T09:22:47.247Z,95888.91
2023-04-27T09:25:31.393Z,95894.06
2023-04-27T09:27:59.354Z,95893.25
2023-04-27T09:30:29.850Z,95890.97
2023-04-27T09:33:02.305Z,95892.13
2023-04-27T09:35:31.577Z,95901.00
2023-04-27T09:37:58.713Z,95893.91
2023-04-27T09:40:29.664Z,95890.03
2023-04-27T09:42:57.916Z,95895.22
2023-04-27T09:45:26.723Z,95889.38
2023-04-27T09:47:53.726Z,95889.19
2023-04-27T09:50:21.904Z,95884.81
2023-04-27T09:52:48.927Z,95880.59
2023-04-27T09:55:24.474Z,95879.03
2023-04-27T09:58:21.396Z,95897.81
2023-04-27T10:01:05.845Z,95884.38
2023-04-27T10:04:00.866Z,95881.25
2023-04-27T10:06:32.316Z,95875.84
2023-04-27T10:08:59.385Z,95867.34
2023-04-27T10:11:40.629Z,95874.88
2023-04-27T10:14:17.008Z,95864.78
2023-04-27T10:16:54.813Z,95859.22
2023-04-27T10:19:23.679Z,95864.97
2023-04-27T10:22:03.606Z,95861.53
2023-04-27T10:24:41.704Z,95858.66
2023-04-27T10:27:12.453Z,95862.69
2023-04-27T10:29:42.158Z,95873.25
2023-04-27T10:32:26.795Z,95874.59
2023-04-27T10:35:06.294Z,95861.97
2023-04-27T10:37:43.575Z,95858.34
2023-04-27T10:40:15.181Z,95855.91
2023-04-27T10:42:42.260Z,95854.47
2023-04-27T10:45:09.448Z,95859.19
2023-04-27T10:47:41.494Z,95865.16
2023-04-27T10:50:11.562Z,95862.00
2023-04-27T10:52:43.396Z,95853.47
2023-04-27T10:55:20.151Z,95857.19
2023-04-27T10:57:54.684Z,95851.25
2023-04-27T11:00:39.552Z,95845.75
2023-04-27T11:03:20.944Z,95845.03
2023-04-27T11:05:49.233Z,95846.09
2023-04-27T11:08:20.962Z,95839.72
2023-04-27T11:10:51.718Z,95838.75
2023-04-27T11:13:20.761Z,95845.88
2023-04-27T11:15:48.032Z,95835.06
2023-04-27T11:18:16.235Z,95843.94
2023-04-27T11:20:47.094Z,95835.34
2023-04-27T11:23:30.021Z,95824.13
2023-04-27T11:25:57.121Z,95829.50
2023-04-27T11:28:24.582Z,95828.88
2023-04-27T11:30:58.036Z,95814.31
2023-04-27T11:33:25.812Z,95819.63
2023-04-27T11:35:52.419Z,95815.91
2023-04-27T11:38:19.839Z,95819.03
2023-04-27T11:40:47.604Z,95810.94
2023-04-27T11:43:14.524Z,95816.16
2023-04-27T11:45:47.369Z,95815.00
2023-04-27T11:48:16.938Z,95810.44
2023-04-27T11:50:48.382Z,95808.72
2023-04-27T11:53:16.808Z,95802.94
2023-04-27T11:55:45.059Z,95806.72
2023-04-27T11:58:15.782Z,95811.44
2023-04-27T12:00:42.928Z,95807.22
2023-04-27T12:03:09.852Z,95799.28
2023-04-27T12:05:49.432Z,95803.69
2023-04-27T12:08:17.122Z,95803.19
2023-04-27T12:10:44.594Z,95798.16
2023-04-27T12:13:12.352Z,95790.41
2023-04-27T12:15:39.268Z,95793.44
2023-04-27T12:20:34.314Z,95799.88
2023-04-27T12:23:01.178Z,95810.22
2023-04-27T12:25:27.966Z,95797.19
2023-04-27T12:27:54.638Z,95794.44
2023-04-27T12:30:23.189Z,95802.63
2023-04-27T12:32:49.710Z,95805.66
2023-04-27T12:35:16.275Z,95806.06
2023-04-27T12:37:42.859Z,95799.84
2023-04-27T12:40:12.425Z,95803.53
2023-04-27T12:42:38.998Z,95796.63
2023-04-27T12:45:05.935Z,95798.34
2023-04-27T12:47:53.964Z,95794.81
2023-04-27T12:50:21.480Z,95805.69
2023-04-27T12:52:48.331Z,95803.41
2023-04-27T12:55:28.937Z,95805.25
2023-04-27T12:57:59.364Z,95805.78
2023-04-27T13:00:26.224Z,95802.50
2023-04-27T13:02:53.358Z,95801.41
2023-04-27T13:05:22.052Z,95799.19
2023-04-27T13:07:48.588Z,95801.41
2023-04-27T13:10:15.259Z,95804.53
2023-04-27T13:12:41.811Z,95812.66
2023-04-27T13:15:09.268Z,95808.75
2023-04-27T13:17:35.835Z,95804.41
2023-04-27T13:20:02.374Z,95801.63
2023-04-27T13:22:28.946Z,95796.47
2023-04-27T13:24:55.579Z,95795.16
2023-04-27T13:27:25.180Z,95792.19
2023-04-27T13:29:51.810Z,95797.63
2023-04-27T13:32:18.641Z,95795.63
2023-04-27T13:34:45.461Z,95782.13
2023-04-27T13:37:12.095Z,95779.69
2023-04-27T13:39:39.774Z,95773.38
2023-04-27T13:42:06.490Z,95778.47
2023-04-27T13:44:33.185Z,95777.34
2023-04-27T13:46:59.811Z,95757.19
2023-04-27T13:49:26.372Z,95769.47
2023-04-27T13:51:54.089Z,95766.78
2023-04-27T13:54:21.521Z,95767.50
2023-04-27T13:56:48.409Z,95762.13
2023-04-27T13:59:16.580Z,95746.72
2023-04-27T14:01:43.493Z,95747.38
2023-04-27T14:04:10.777Z,95739.91
2023-04-27T14:06:37.700Z,95740.94
2023-04-27T14:09:04.490Z,95741.66
2023-04-27T14:11:31.952Z,95740.28
2023-04-27T14:14:02.057Z,95740.69
2023-04-27T14:16:28.609Z,95733.19
2023-04-27T14:18:55.912Z,95730.47
2023-04-27T14:21:24.482Z,95732.63
2023-04-27T14:23:51.049Z,95729.63
2023-04-27T14:26:17.514Z,95732.94
2023-04-27T14:28:44.163Z,95732.78
2023-04-27T14:31:10.649Z,95725.94
2023-04-27T14:33:38.337Z,95717.59
2023-04-27T14:36:05.117Z,95733.59
2023-04-27T14:38:32.223Z,95717.56
2023-04-27T14:40:59.381Z,95711.72
2023-04-27T14:43:26.866Z,95709.31
2023-04-27T14:45:59.301Z,95714.88
2023-04-27T14:48:32.891Z,95716.47
2023-04-27T14:51:00.841Z,95727.53
2023-04-27T14:53:27.382Z,95713.25
2023-04-27T14:55:53.910Z,95721.72
2023-04-27T14:58:20.626Z,95717.63
2023-04-27T15:00:47.091Z,95723.44
2023-04-27T15:03:20.415Z,95726.09
2023-04-27T15:05:47.030Z,95729.31
2023-04-27T15:08:13.666Z,95720.44
2023-04-27T15:10:40.109Z,95726.38
2023-04-27T15:13:06.647Z,95722.91
2023-04-27T15:15:33.186Z,95719.09
2023-04-27T15:17:59.767Z,95715.78
2023-04-27T15:20:26.814Z,95719.16
2023-04-27T15:22:53.518Z,95719.16
2023-04-27T15:25:20.294Z,95726.81
2023-04-27T15:27:46.861Z,95717.13
2023-04-27T15:30:14.050Z,95721.47
2023-04-27T15:32:42.703Z,95714.44
2023-04-27T15:35:09.659Z,95711.13
2023-04-27T15:37:37.314Z,95720.47
2023-04-27T15:40:04.925Z,95714.72
2023-04-27T15:42:32.638Z,95716.56
2023-04-27T15:45:00.471Z,95716.88
2023-04-27T15:47:26.944Z,95717.56
2023-04-27T15:49:57.354Z,95710.94
2023-04-27T15:52:25.599Z,95715.09
2023-04-27T15:54:52.292Z,95698.06
2023-04-27T15:57:18.816Z,95689.66
2023-04-27T15:59:52.569Z,95688.25
2023-04-27T16:02:19.187Z,95696.16
2023-04-27T16:04:48.449Z,95691.09
2023-04-27T16:07:14.968Z,95693.66
2023-04-27T16:09:41.575Z,95690.91
2023-04-27T16:12:08.215Z,95698.59
2023-04-27T16:14:34.728Z,95686.28
2023-04-27T16:17:04.442Z,95684.47
2023-04-27T16:19:31.159Z,95672.97
2023-04-27T16:21:57.686Z,95674.38
2023-04-27T16:24:25.542Z,95661.13
2023-04-27T16:26:52.073Z,95669.19
2023-04-27T16:29:19.907Z,95659.63
2023-04-27T16:31:49.814Z,95665.16
2023-04-27T16:34:17.516Z,95651.09
2023-04-27T16:36:44.533Z,95663.84
2023-04-27T16:39:19.488Z,95653.13
2023-04-27T16:41:48.160Z,95652.53
2023-04-27T16:44:23.901Z,95643.16
2023-04-27T16:46:53.647Z,95656.41
2023-04-27T16:49:21.311Z,95649.13
2023-04-27T16:51:47.903Z,95646.47
2023-04-27T16:54:17.571Z,95642.66
2023-04-27T16:56:45.750Z,95636.66
2023-04-27T16:59:12.773Z,95638.69
2023-04-27T17:01:40.519Z,95635.75
2023-04-27T17:04:07.256Z,95631.94
2023-04-27T17:06:35.049Z,95633.47
2023-04-27T17:09:01.979Z,95622.59
2023-04-27T17:11:28.684Z,95627.53
2023-04-27T17:13:55.506Z,95629.34
2023-04-27T17:16:24.353Z,95636.75
2023-04-27T17:18:51.066Z,95634.22
2023-04-27T17:21:18.622Z,95632.78
2023-04-27T17:23:47.542Z,95629.47
2023-04-27T17:26:16.077Z,95632.31
2023-04-27T17:28:42.815Z,95640.84
2023-04-27T17:31:09.427Z,95624.19
2023-04-27T17:33:36.283Z,95628.78
2023-04-27T17:36:02.809Z,95621.91
2023-04-27T17:38:29.403Z,95625.47
2023-04-27T17:40:56.273Z,95631.34
2023-04-27T17:43:22.746Z,95620.09
2023-04-27T17:45:49.224Z,95627.81
2023-04-27T17:48:16.458Z,95611.03
2023-04-27T17:50:43.326Z,95612.44
2023-04-27T17:53:10.071Z,95607.38
2023-04-27T17:55:36.553Z,95606.03
2023-04-27T17:58:06.343Z,95606.13
2023-04-27T18:00:34.129Z,95603.63
2023-04-27T18:03:00.964Z,95606.50
2023-04-27T18:05:27.675Z,95602.09
2023-04-27T18:07:54.328Z,95597.69
2023-04-27T18:10:20.896Z,95596.66
2023-04-27T18:12:47.497Z,95588.50
2023-04-27T18:15:16.174Z,95596.06
2023-04-27T18:17:42.818Z,95596.63
2023-04-27T18:20:11.695Z,95587.09
2023-04-27T18:22:39.942Z,95595.56
2023-04-27T18:25:08.048Z,95589.00
2023-04-27T18:27:37.236Z,95587.94
2023-04-27T18:30:06.672Z,95598.22
2023-04-27T18:32:34.341Z,95591.31
2023-04-27T18:35:01.286Z,95605.75
2023-04-27T18:37:27.793Z,95609.19
2023-04-27T18:39:54.385Z,95600.13
2023-04-27T18:42:21.091Z,95614.69
2023-04-27T18:44:48.037Z,95601.75
2023-04-27T18:47:14.527Z,95602.53
2023-04-27T18:49:42.201Z,95596.09
2023-04-27T18:52:11.394Z,95602.28
2023-04-27T18:54:38.418Z,95602.97
2023-04-27T18:57:05.013Z,95601.34
2023-04-27T18:59:31.551Z,95600.88
2023-04-27T19:01:58.161Z,95602.97
2023-04-27T19:04:26.111Z,95603.63
2023-04-27T19:06:52.876Z,95603.16
2023-04-27T19:09:19.468Z,95609.47
2023-04-27T19:11:49.385Z,95611.75
2023-04-27T19:14:20.214Z,95614.03
2023-04-27T19:16:46.764Z,95614.84
2023-04-27T19:19:13.422Z,95608.53
2023-04-27T19:21:41.852Z,95608.53
2023-04-27T19:24:08.462Z,95623.56
2023-04-27T19:26:35.742Z,95619.47
2023-04-27T19:29:02.700Z,95630.13
2023-04-27T19:31:29.281Z,95621.34
2023-04-27T19:36:33.596Z,95618.50
2023-04-27T19:39:00.138Z,95607.03
2023-04-27T19:41:26.643Z,95599.91
2023-04-27T19:43:53.170Z,95611.13
2023-04-27T19:46:20.017Z,95613.88
2023-04-27T19:48:46.668Z,95610.78
2023-04-27T19:51:15.318Z,95623.41
2023-04-27T19:53:42.028Z,95629.72
2023-04-27T19:56:08.521Z,95624.34
2023-04-27T19:58:35.988Z,95622.06
2023-04-27T20:01:03.889Z,95616.44
2023-04-27T20:03:30.737Z,95603.69
2023-04-27T20:05:58.071Z,95614.44
2023-04-27T20:08:25.016Z,95616.59
2023-04-27T20:10:51.561Z,95610.94
2023-04-27T20:13:18.136Z,95607.72
2023-04-27T20:15:44.740Z,95618.19
2023-04-27T20:18:11.308Z,95623.34
2023-04-27T20:20:37.902Z,95613.75
2023-04-27T20:23:04.417Z,95621.13
2023-04-27T20:25:31.014Z,95613.22
2023-04-27T20:27:57.620Z,95606.09
2023-04-27T20:30:24.326Z,95613.88
2023-04-27T20:32:50.796Z,95602.28
2023-04-27T20:35:17.436Z,95596.31
2023-04-27T20:37:45.135Z,95598.59
2023-04-27T20:40:14.426Z,95599.28
2023-04-27T20:42:49.446Z,95595.25
2023-04-27T20:45:16.919Z,95593.97
2023-04-27T20:47:43.478Z,95585.25
2023-04-27T20:50:10.156Z,95576.22
2023-04-27T20:52:36.732Z,95588.69
2023-04-27T20:55:04.174Z,95588.56
2023-04-27T20:57:33.792Z,95580.66
2023-04-27T21:00:00.580Z,95575.47
2023-04-27T21:02:27.073Z,95577.16
2023-04-27T21:04:53.585Z,95580.59
2023-04-27T21:07:20.172Z,95585.94
2023-04-27T21:09:46.778Z,95597.44
2023-04-27T21:12:14.732Z,95600.06
2023-04-27T21:14:41.280Z,95585.19
2023-04-27T21:17:07.910Z,95573.38
2023-04-27T21:19:34.448Z,95591.75
2023-04-27T21:22:01.538Z,95611.41
2023-04-27T21:24:28.143Z,95611.16
2023-04-27T21:26:54.631Z,95625.28
2023-04-27T21:29:21.444Z,95625.78
2023-04-27T21:31:47.924Z,95636.66
2023-04-27T21:34:14.754Z,95643.47
2023-04-27T21:36:41.915Z,95638.47
2023-04-27T21:39:08.451Z,95644.00
2023-04-27T21:41:41.149Z,95642.09
2023-04-27T21:44:10.030Z,95628.50
2023-04-27T21:46:37.324Z,95640.75
2023-04-27T21:49:04.162Z,95635.88
2023-04-27T21:51:34.813Z,95640.44
2023-04-27T21:54:01.642Z,95644.31
2023-04-27T21:56:28.727Z,95645.13
2023-04-27T21:58:55.390Z,95648.50
2023-04-27T22:01:22.864Z,95642.22
2023-04-27T22:03:50.221Z,95646.59
2023-04-27T22:06:17.411Z,95636.13
2023-04-27T22:08:45.123Z,95638.22
2023-04-27T22:11:11.992Z,95639.06
2023-04-27T22:13:38.527Z,95645.00
2023-04-27T22:16:05.350Z,95639.69
2023-04-27T22:18:31.876Z,95630.47
2023-04-27T22:20:58.443Z,95617.38
2023-04-27T22:23:24.999Z,95613.66
2023-04-27T22:25:51.538Z,95605.44
2023-04-27T22:28:19.215Z,95588.50
2023-04-27T22:30:45.783Z,95572.84
2023-04-27T22:33:12.332Z,95581.03
2023-04-27T22:35:38.827Z,95576.81
2023-04-27T22:38:06.056Z,95574.06
2023-04-27T22:40:32.500Z,95573.09
2023-04-27T22:42:58.957Z,95580.22
2023-04-27T22:45:25.590Z,95567.00
2023-04-27T22:47:52.132Z,95564.44
2023-04-27T22:50:18.732Z,95563.97
2023-04-27T22:52:45.385Z,95551.88
2023-04-27T22:55:12.295Z,95548.47
2023-04-27T22:57:40.367Z,95546.19
2023-04-27T23:00:13.539Z,95548.13
2023-04-27T23:02:41.529Z,95544.25
2023-04-27T23:05:09.371Z,95542.31
2023-04-27T23:07:37.177Z,95539.25
2023-04-27T23:10:04.747Z,95541.00
2023-04-27T23:12:31.350Z,95526.28
2023-04-27T23:15:00.618Z,95534.66
2023-04-27T23:17:33.461Z,95526.09
2023-04-27T23:20:01.592Z,95520.75
2023-04-27T23:22:28.505Z,95512.53
2023-04-27T23:24:55.059Z,95512.03
2023-04-27T23:27:22.565Z,95512.38
2023-04-27T23:29:49.072Z,95501.59
2023-04-27T23:32:15.782Z,95503.72
2023-04-27T23:34:42.463Z,95488.06
2023-04-27T23:37:09.114Z,95487.44
2023-04-27T23:39:35.770Z,95483.41
2023-04-27T23:42:03.258Z,95483.28
2023-04-27T23:44:29.750Z,95489.09
2023-04-27T23:46:56.750Z,95482.78
2023-04-27T23:49:23.277Z,95481.66
2023-04-27T23:51:50.076Z,95483.94
2023-04-27T23:54:16.799Z,95486.84
2023-04-27T23:56:43.430Z,95488.66
2023-04-27T23:59:11.070Z,95486.72
